Time;durP1;ratioP1;P1;durP2;ratioP2;P2;SDS_P1;SDS_P2;PMS_P1;PMS_P2;Temp;Humidity;BMP_temperature;BMP_pressure;BME280_temperature;BME280_humidity;BME280_pressure;Samples;Min_cycle;Max_cycle;Signal;HPM_P1;HPM_P2
2023/12/01 00:02:14;;;;;;;13.23;7.17;;;-1.20;99.90;;;;;;4899959;28;20649;-64
2023/12/01 00:04:41;;;;;;;10.37;6.27;;;-1.20;99.90;;;;;;4933013;28;20202;-63
2023/12/01 00:07:09;;;;;;;10.73;6.20;;;-1.10;99.90;;;;;;4934115;28;20198;-63
2023/12/01 00:09:36;;;;;;;8.33;5.67;;;-1.20;99.90;;;;;;4930490;28;20205;-63
2023/12/01 00:12:03;;;;;;;11.90;6.37;;;-1.30;99.90;;;;;;4925309;28;20419;-63
2023/12/01 00:14:30;;;;;;;9.90;6.17;;;-1.30;99.90;;;;;;4937149;28;20400;-63
2023/12/01 00:16:57;;;;;;;10.87;6.57;;;-0.30;99.90;;;;;;4898382;28;20351;-63
2023/12/01 00:19:24;;;;;;;12.07;6.67;;;-1.30;99.90;;;;;;4937902;28;20207;-63
2023/12/01 00:21:51;;;;;;;10.87;6.73;;;-1.30;99.90;;;;;;4934383;28;20208;-63
2023/12/01 00:24:19;;;;;;;11.30;6.47;;;-1.30;99.90;;;;;;4938515;28;20271;-63
2023/12/01 00:26:46;;;;;;;10.70;6.10;;;-1.30;99.90;;;;;;4929228;28;20205;-64
2023/12/01 00:29:13;;;;;;;12.10;6.80;;;-1.30;99.90;;;;;;4923319;28;20308;-63
2023/12/01 00:31:39;;;;;;;12.27;6.90;;;-0.60;99.90;;;;;;4898899;28;21881;-64
2023/12/01 00:34:06;;;;;;;11.80;6.70;;;-1.20;99.90;;;;;;4926684;28;21615;-63
2023/12/01 00:36:33;;;;;;;11.40;6.93;;;-1.20;99.90;;;;;;4932734;28;20200;-63
2023/12/01 00:39:00;;;;;;;12.07;7.37;;;-1.00;99.90;;;;;;4931464;28;20211;-63
2023/12/01 00:41:28;;;;;;;12.00;6.73;;;-1.20;99.90;;;;;;4926940;28;20293;-63
2023/12/01 00:43:55;;;;;;;10.87;6.73;;;-1.20;99.90;;;;;;4922627;28;20215;-63
2023/12/01 00:46:22;;;;;;;11.93;6.13;;;-1.20;99.90;;;;;;4936572;28;20226;-63
2023/12/01 00:48:49;;;;;;;10.57;7.30;;;-1.30;99.90;;;;;;4898431;28;20270;-63
2023/12/01 00:51:16;;;;;;;11.30;7.00;;;-1.30;99.90;;;;;;4934462;28;20905;-63
2023/12/01 00:53:43;;;;;;;10.37;6.80;;;-1.40;99.90;;;;;;4930661;28;20230;-63
2023/12/01 00:56:11;;;;;;;11.50;6.63;;;-1.30;99.90;;;;;;4929486;28;20291;-63
2023/12/01 00:58:39;;;;;;;11.07;6.80;;;-1.30;99.90;;;;;;4935179;28;20206;-64
2023/12/01 01:01:07;;;;;;;13.60;6.77;;;-1.20;99.90;;;;;;4907390;28;20206;-63
2023/12/01 01:03:34;;;;;;;15.43;7.07;;;-1.40;99.90;;;;;;4901727;28;20572;-63
2023/12/01 01:06:01;;;;;;;9.87;6.77;;;-1.50;99.90;;;;;;4923346;28;20310;-63
2023/12/01 01:08:29;;;;;;;16.13;7.40;;;-1.40;99.90;;;;;;4937357;28;20210;-63
2023/12/01 01:10:57;;;;;;;15.23;7.63;;;-1.40;99.90;;;;;;4926368;28;20205;-63
2023/12/01 01:13:26;;;;;;;12.87;7.93;;;-1.40;99.90;;;;;;4938592;28;20303;-63
2023/12/01 01:15:54;;;;;;;11.70;7.50;;;-1.30;99.90;;;;;;4924168;28;20210;-64
2023/12/01 01:18:21;;;;;;;11.60;6.57;;;-1.30;99.90;;;;;;4904239;28;20213;-63
2023/12/01 01:20:48;;;;;;;13.40;8.13;;;-1.40;99.90;;;;;;4938999;28;20313;-63
2023/12/01 01:23:15;;;;;;;13.53;8.30;;;-1.40;99.90;;;;;;4937600;28;20380;-63
2023/12/01 01:25:42;;;;;;;14.53;8.43;;;-1.50;99.90;;;;;;4928250;28;20210;-64
2023/12/01 01:28:09;;;;;;;12.90;7.80;;;-1.60;99.90;;;;;;4933609;28;20469;-63
2023/12/01 01:30:36;;;;;;;14.20;8.80;;;-1.50;99.90;;;;;;4933874;28;20215;-63
2023/12/01 01:33:05;;;;;;;15.83;8.50;;;-1.20;99.90;;;;;;4934914;28;20514;-63
2023/12/01 01:35:32;;;;;;;14.43;8.47;;;-1.50;99.90;;;;;;4897106;28;20234;-63
2023/12/01 01:37:59;;;;;;;11.93;8.40;;;-1.60;99.90;;;;;;4940244;28;20204;-63
2023/12/01 01:40:25;;;;;;;15.40;8.10;;;-1.60;99.90;;;;;;4933996;28;20211;-63
2023/12/01 01:42:52;;;;;;;15.00;8.43;;;-1.60;99.90;;;;;;4940202;28;20202;-63
2023/12/01 01:45:19;;;;;;;14.20;8.17;;;-1.60;99.90;;;;;;4930635;28;20193;-63
2023/12/01 01:47:47;;;;;;;16.90;8.17;;;-1.60;99.90;;;;;;4922377;28;20222;-63
2023/12/01 01:50:15;;;;;;;15.07;8.47;;;-1.60;99.90;;;;;;4902184;28;20226;-63
2023/12/01 01:52:43;;;;;;;16.50;8.67;;;-1.60;99.90;;;;;;4938069;28;20234;-63
2023/12/01 01:55:12;;;;;;;15.40;9.07;;;-1.50;99.90;;;;;;4933604;28;20483;-63
2023/12/01 01:57:43;;;;;;;12.90;8.07;;;-1.50;99.90;;;;;;4928692;28;20213;-63
2023/12/01 02:00:16;;;;;;;12.67;7.93;;;-1.50;99.90;;;;;;4939353;28;20666;-63
2023/12/01 02:02:43;;;;;;;16.80;8.67;;;-1.50;99.90;;;;;;4926963;28;20662;-63
2023/12/01 02:05:14;;;;;;;16.93;9.10;;;-1.60;99.90;;;;;;4892464;28;22009;-63
2023/12/01 02:07:42;;;;;;;15.27;8.90;;;-1.60;99.90;;;;;;4937766;28;20207;-63
2023/12/01 02:10:15;;;;;;;16.93;9.10;;;-1.70;99.90;;;;;;4934887;28;20441;-63
2023/12/01 02:12:43;;;;;;;17.67;9.37;;;-1.70;99.90;;;;;;4931152;28;20229;-63
2023/12/01 02:15:10;;;;;;;15.67;9.23;;;-1.70;99.90;;;;;;4934322;28;20378;-64
2023/12/01 02:17:38;;;;;;;18.63;10.13;;;-1.70;99.90;;;;;;4925364;28;20337;-63
2023/12/01 02:20:06;;;;;;;15.10;9.00;;;-1.70;99.90;;;;;;4894386;28;20222;-63
2023/12/01 02:22:35;;;;;;;16.80;10.13;;;-1.70;99.90;;;;;;4939686;28;20213;-63
2023/12/01 02:25:02;;;;;;;16.33;9.87;;;-1.60;99.90;;;;;;4925502;28;20777;-63
2023/12/01 02:27:29;;;;;;;18.67;10.33;;;-1.70;99.90;;;;;;4941369;28;20528;-63
2023/12/01 02:29:56;;;;;;;18.87;10.87;;;-1.70;99.90;;;;;;4930969;28;20943;-63
2023/12/01 02:32:23;;;;;;;21.87;11.53;;;-2.40;99.90;;;;;;4913844;28;20235;-63
2023/12/01 02:34:50;;;;;;;20.23;10.30;;;;;;;;;;4908710;28;20234;-63
2023/12/01 02:37:17;;;;;;;18.50;10.43;;;-1.40;99.90;;;;;;4907642;28;20771;-63
2023/12/01 02:39:45;;;;;;;20.30;11.37;;;-1.90;99.90;;;;;;4934311;28;20793;-63
2023/12/01 02:42:12;;;;;;;22.67;11.03;;;-2.20;99.90;;;;;;4929600;28;22831;-63
2023/12/01 02:44:39;;;;;;;18.43;10.40;;;-2.20;99.90;;;;;;4933386;28;20736;-63
2023/12/01 02:47:08;;;;;;;21.00;11.30;;;-2.30;99.90;;;;;;4931079;28;20739;-63
2023/12/01 02:49:35;;;;;;;16.97;9.07;;;-2.30;99.90;;;;;;4924044;28;20201;-63
2023/12/01 02:52:02;;;;;;;17.20;10.53;;;-2.40;99.90;;;;;;4897964;28;20571;-64
2023/12/01 02:54:29;;;;;;;15.57;9.40;;;-2.40;99.90;;;;;;4934742;28;20316;-63
2023/12/01 02:56:57;;;;;;;18.93;10.13;;;-2.50;99.90;;;;;;4934197;28;20194;-63
2023/12/01 02:59:24;;;;;;;16.20;9.37;;;-2.50;99.90;;;;;;4940158;28;20679;-63
2023/12/01 03:01:50;;;;;;;18.10;10.37;;;-2.50;99.90;;;;;;4927673;28;20212;-63
2023/12/01 03:04:17;;;;;;;21.27;11.57;;;-2.50;99.90;;;;;;4914293;28;20209;-63
2023/12/01 03:06:44;;;;;;;16.60;9.97;;;-2.40;99.90;;;;;;4881784;28;20901;-63
2023/12/01 03:09:16;;;;;;;18.07;10.27;;;;;;;;;;4923280;28;20197;-64
2023/12/01 03:11:44;;;;;;;15.87;9.67;;;-2.40;99.90;;;;;;4923646;28;20555;-63
2023/12/01 03:14:12;;;;;;;21.50;10.30;;;-2.30;99.90;;;;;;4938171;28;20200;-63
2023/12/01 03:16:40;;;;;;;22.30;11.13;;;-2.30;99.90;;;;;;4931133;28;20200;-63
2023/12/01 03:19:08;;;;;;;23.67;10.10;;;-2.20;99.90;;;;;;4930722;28;20228;-63
2023/12/01 03:21:35;;;;;;;19.83;11.73;;;-2.10;99.90;;;;;;4911138;28;20213;-63
2023/12/01 03:24:02;;;;;;;20.13;11.43;;;-2.10;99.90;;;;;;4904023;28;20640;-63
2023/12/01 03:26:29;;;;;;;19.83;11.60;;;-2.00;99.90;;;;;;4921921;28;20217;-63
2023/12/01 03:28:56;;;;;;;20.27;12.10;;;-2.10;99.90;;;;;;4929314;28;20206;-63
2023/12/01 03:31:25;;;;;;;20.33;12.03;;;-2.10;99.90;;;;;;4927642;28;20242;-63
2023/12/01 03:33:51;;;;;;;21.83;11.63;;;-2.10;99.90;;;;;;4927805;28;20680;-63
2023/12/01 03:36:18;;;;;;;19.20;10.53;;;-2.20;99.90;;;;;;4913676;28;20234;-64
2023/12/01 03:38:45;;;;;;;23.33;11.57;;;-2.20;99.90;;;;;;4893690;28;20219;-63
2023/12/01 03:41:12;;;;;;;19.67;10.57;;;-2.10;99.90;;;;;;4930493;28;20602;-65
2023/12/01 03:43:39;;;;;;;19.83;10.57;;;-2.20;99.90;;;;;;4918922;28;20220;-64
2023/12/01 03:46:06;;;;;;;21.37;10.93;;;-2.20;99.90;;;;;;4930938;28;20213;-63
2023/12/01 03:48:34;;;;;;;19.07;10.73;;;-2.20;99.90;;;;;;4928507;28;20206;-63
2023/12/01 03:51:01;;;;;;;18.27;10.60;;;-2.20;99.90;;;;;;4923988;28;20213;-61
2023/12/01 03:53:30;;;;;;;18.80;10.33;;;;;;;;;;4897156;28;20222;-64
2023/12/01 03:55:58;;;;;;;21.13;11.23;;;-2.30;99.90;;;;;;4930711;28;20235;-63
2023/12/01 03:58:25;;;;;;;18.43;10.80;;;-2.30;99.90;;;;;;4933836;28;20206;-63
2023/12/01 04:00:52;;;;;;;24.70;11.37;;;-2.30;99.90;;;;;;4926393;28;20742;-63
2023/12/01 04:03:19;;;;;;;21.07;10.53;;;-2.30;99.90;;;;;;4938308;28;21129;-63
2023/12/01 04:05:48;;;;;;;18.60;11.43;;;-2.30;99.90;;;;;;4920410;28;20553;-63
2023/12/01 04:08:14;;;;;;;17.37;9.30;;;-1.50;99.90;;;;;;4929962;28;20198;-63
2023/12/01 04:10:42;;;;;;;19.40;10.77;;;-2.30;99.90;;;;;;4894703;28;20915;-63
2023/12/01 04:13:12;;;;;;;17.33;9.97;;;-2.60;99.90;;;;;;4923038;28;20200;-63
2023/12/01 04:15:39;;;;;;;19.13;10.00;;;-2.40;99.90;;;;;;4924833;28;20609;-63
2023/12/01 04:18:07;;;;;;;21.77;11.03;;;-2.20;99.90;;;;;;4931481;28;20299;-63
2023/12/01 04:20:38;;;;;;;17.07;10.20;;;-3.70;99.90;;;;;;4934349;28;20698;-63
2023/12/01 04:23:09;;;;;;;16.27;9.10;;;-2.30;99.90;;;;;;4928612;28;20227;-63
2023/12/01 04:25:37;;;;;;;18.90;10.63;;;-2.10;99.90;;;;;;4893166;28;28177;-63
2023/12/01 04:28:06;;;;;;;21.43;11.20;;;-2.20;99.90;;;;;;4922759;28;20358;-63
2023/12/01 04:30:34;;;;;;;19.97;11.00;;;-2.30;99.90;;;;;;4935448;28;20239;-63
2023/12/01 04:33:01;;;;;;;29.20;11.13;;;-1.60;99.90;;;;;;4932346;28;20523;-63
2023/12/01 04:35:30;;;;;;;17.53;9.73;;;-2.40;99.90;;;;;;4939231;28;20374;-63
2023/12/01 04:37:59;;;;;;;18.07;10.33;;;-2.50;99.90;;;;;;4908495;28;20426;-63
2023/12/01 04:40:28;;;;;;;21.77;11.43;;;-2.40;99.90;;;;;;4935612;28;20285;-63
2023/12/01 04:42:56;;;;;;;18.23;10.03;;;-2.80;99.90;;;;;;4893006;28;20804;-63
2023/12/01 04:45:24;;;;;;;17.37;10.70;;;-2.50;99.90;;;;;;4929253;28;20680;-63
2023/12/01 04:47:52;;;;;;;23.80;10.53;;;-2.60;99.90;;;;;;4935748;28;20210;-63
2023/12/01 04:50:21;;;;;;;23.37;11.77;;;-2.60;99.90;;;;;;4935870;28;20608;-63
2023/12/01 04:52:52;;;;;;;22.73;11.57;;;-2.20;99.90;;;;;;4923997;28;20674;-63
2023/12/01 04:55:20;;;;;;;16.77;10.00;;;-2.60;99.90;;;;;;4934209;28;20817;-63
2023/12/01 04:57:49;;;;;;;28.43;12.90;;;-2.60;99.90;;;;;;4897980;28;20679;-63
2023/12/01 05:00:20;;;;;;;21.10;10.03;;;-3.00;99.90;;;;;;4933802;28;20665;-63
2023/12/01 05:02:48;;;;;;;22.93;12.13;;;-4.00;99.90;;;;;;4929519;28;20403;-63
2023/12/01 05:05:16;;;;;;;21.53;11.60;;;-2.50;99.90;;;;;;4931243;28;20204;-63
2023/12/01 05:07:44;;;;;;;20.97;11.83;;;-2.70;99.90;;;;;;4934650;28;20216;-63
2023/12/01 05:10:14;;;;;;;21.80;12.20;;;-2.70;99.90;;;;;;4936928;28;20586;-63
2023/12/01 05:12:43;;;;;;;18.90;11.40;;;-2.90;99.90;;;;;;4904384;28;20208;-63
2023/12/01 05:15:16;;;;;;;19.37;10.50;;;-2.80;99.90;;;;;;4931879;28;20439;-63
2023/12/01 05:17:45;;;;;;;22.60;11.77;;;-4.00;99.90;;;;;;4937853;28;20746;-63
2023/12/01 05:20:16;;;;;;;19.20;10.27;;;-2.30;99.90;;;;;;4938314;28;20422;-63
2023/12/01 05:22:45;;;;;;;22.00;11.30;;;-2.90;99.90;;;;;;4939355;28;20213;-63
2023/12/01 05:25:13;;;;;;;20.23;11.90;;;-2.80;99.90;;;;;;4928740;28;20211;-63
2023/12/01 05:27:42;;;;;;;21.93;11.70;;;-2.70;99.90;;;;;;4906885;28;20200;-63
2023/12/01 05:30:13;;;;;;;22.07;11.63;;;-2.90;99.90;;;;;;4932267;28;20231;-62
2023/12/01 05:32:41;;;;;;;20.17;10.37;;;-2.90;99.90;;;;;;4934132;28;20237;-63
2023/12/01 05:35:11;;;;;;;17.60;10.07;;;-1.80;99.90;;;;;;4925336;28;20341;-63
2023/12/01 05:37:39;;;;;;;17.83;9.57;;;-2.80;99.90;;;;;;4936260;28;20208;-63
2023/12/01 05:40:08;;;;;;;19.23;10.00;;;-2.80;99.90;;;;;;4930413;28;20215;-62
2023/12/01 05:42:35;;;;;;;20.37;11.53;;;-2.90;99.90;;;;;;4900286;28;20467;-63
2023/12/01 05:45:02;;;;;;;18.10;10.07;;;-2.80;99.90;;;;;;4932113;28;20302;-63
2023/12/01 05:47:30;;;;;;;23.03;11.20;;;-2.90;99.90;;;;;;4939523;28;20203;-63
2023/12/01 05:49:57;;;;;;;19.10;10.67;;;-4.30;99.90;;;;;;4941396;28;20521;-63
2023/12/01 05:52:24;;;;;;;20.60;12.33;;;-3.00;99.90;;;;;;4931363;28;20206;-63
2023/12/01 05:54:52;;;;;;;20.90;11.13;;;-3.00;99.90;;;;;;4922938;28;20233;-63
2023/12/01 05:57:20;;;;;;;19.73;11.93;;;-3.10;99.90;;;;;;4898489;28;20212;-63
2023/12/01 05:59:48;;;;;;;19.73;10.77;;;;;;;;;;4932163;28;20243;-62
2023/12/01 06:02:15;;;;;;;19.50;11.17;;;;;;;;;;4934634;28;20234;-62
2023/12/01 06:04:44;;;;;;;17.20;9.73;;;-3.10;99.90;;;;;;4937033;28;20212;-63
2023/12/01 06:07:13;;;;;;;17.10;10.33;;;-3.00;99.90;;;;;;4932914;28;20224;-62
2023/12/01 06:09:40;;;;;;;22.47;10.93;;;-3.00;99.90;;;;;;4897719;28;20225;-62
2023/12/01 06:12:07;;;;;;;19.30;11.23;;;;;;;;;;4890823;28;21050;-63
2023/12/01 06:14:34;;;;;;;18.47;10.63;;;-3.00;99.90;;;;;;4917034;28;20948;-63
2023/12/01 06:17:04;;;;;;;23.13;12.13;;;-2.90;99.90;;;;;;4935464;28;20226;-63
2023/12/01 06:19:31;;;;;;;17.77;10.53;;;-3.10;99.90;;;;;;4937825;28;20653;-63
2023/12/01 06:21:59;;;;;;;21.63;12.03;;;-3.00;99.90;;;;;;4937981;28;20232;-63
2023/12/01 06:24:27;;;;;;;20.73;11.10;;;-2.80;99.90;;;;;;4918021;28;20906;-63
2023/12/01 06:26:54;;;;;;;17.13;10.53;;;-3.10;99.90;;;;;;4930503;28;20231;-62
2023/12/01 06:29:21;;;;;;;24.80;11.97;;;-2.40;99.90;;;;;;4908237;28;20360;-63
2023/12/01 06:31:48;;;;;;;21.87;11.67;;;-2.80;99.90;;;;;;4929250;28;20331;-62
2023/12/01 06:34:15;;;;;;;29.57;15.87;;;-2.80;99.90;;;;;;4925718;28;20216;-62
2023/12/01 06:36:41;;;;;;;28.07;13.73;;;-2.70;99.90;;;;;;4944437;28;20230;-62
2023/12/01 06:39:13;;;;;;;25.07;12.43;;;-3.10;99.90;;;;;;4928679;28;20570;-63
2023/12/01 06:41:41;;;;;;;21.27;12.27;;;-2.60;99.90;;;;;;4940387;28;20758;-62
2023/12/01 06:44:08;;;;;;;23.97;13.20;;;-2.60;99.90;;;;;;4902931;28;20219;-63
2023/12/01 06:46:36;;;;;;;21.23;12.47;;;-2.60;99.90;;;;;;4920721;28;20217;-62
2023/12/01 06:49:03;;;;;;;18.87;11.03;;;-2.50;99.90;;;;;;4937696;28;20201;-62
2023/12/01 06:51:30;;;;;;;25.37;12.27;;;-2.50;99.90;;;;;;4937302;28;20288;-62
2023/12/01 06:53:57;;;;;;;18.80;11.47;;;-2.50;99.90;;;;;;4938105;28;20197;-62
2023/12/01 06:56:25;;;;;;;26.37;12.53;;;-2.40;99.90;;;;;;4925522;28;20248;-63
2023/12/01 06:58:51;;;;;;;22.03;12.37;;;-2.40;99.90;;;;;;4898881;28;20212;-62
2023/12/01 07:01:20;;;;;;;22.53;11.90;;;-2.50;99.90;;;;;;4940222;28;20683;-63
2023/12/01 07:03:46;;;;;;;24.73;12.40;;;-3.20;99.90;;;;;;4924728;28;20418;-62
2023/12/01 07:06:14;;;;;;;23.80;11.53;;;-2.50;99.90;;;;;;4940405;28;20211;-63
2023/12/01 07:08:41;;;;;;;23.93;12.17;;;-2.40;99.90;;;;;;4928197;28;20220;-63
2023/12/01 07:11:08;;;;;;;23.37;12.40;;;-2.40;99.90;;;;;;4926535;28;20210;-63
2023/12/01 07:13:36;;;;;;;25.40;13.23;;;-2.30;99.90;;;;;;4900613;28;20396;-63
2023/12/01 07:16:09;;;;;;;24.23;14.07;;;-2.20;99.90;;;;;;4942117;28;20233;-62
2023/12/01 07:18:38;;;;;;;23.07;13.60;;;-2.50;99.90;;;;;;4924173;28;20362;-63
2023/12/01 07:21:06;;;;;;;20.87;12.03;;;-2.10;99.90;;;;;;4938753;28;20687;-63
2023/12/01 07:23:33;;;;;;;21.73;12.87;;;-2.20;99.90;;;;;;4932195;28;20214;-63
2023/12/01 07:26:00;;;;;;;22.70;11.93;;;-2.20;99.90;;;;;;4938753;28;20329;-63
2023/12/01 07:28:33;;;;;;;20.27;12.00;;;-1.00;99.90;;;;;;4919311;28;20231;-63
2023/12/01 07:31:02;;;;;;;29.93;13.60;;;-2.10;99.90;;;;;;4898188;28;20213;-63
2023/12/01 07:33:28;;;;;;;25.00;12.27;;;-1.70;99.90;;;;;;4918610;28;20210;-63
2023/12/01 07:35:57;;;;;;;23.87;12.83;;;-2.00;99.90;;;;;;4935853;28;21274;-62
2023/12/01 07:38:23;;;;;;;22.50;12.40;;;-2.10;99.90;;;;;;4933060;28;20327;-63
2023/12/01 07:40:50;;;;;;;28.17;13.97;;;-2.00;99.90;;;;;;4930937;28;20435;-63
2023/12/01 07:43:19;;;;;;;24.90;12.00;;;;;;;;;;4919209;28;20221;-62
2023/12/01 07:45:46;;;;;;;24.87;13.37;;;-2.00;99.90;;;;;;4887666;28;20740;-63
2023/12/01 07:48:14;;;;;;;25.57;13.77;;;-2.10;99.90;;;;;;4913836;28;20217;-63
2023/12/01 07:50:41;;;;;;;29.57;13.67;;;-2.10;99.90;;;;;;4924039;28;20781;-63
2023/12/01 07:53:08;;;;;;;26.17;13.07;;;-2.10;99.90;;;;;;4933098;28;20805;-63
2023/12/01 07:55:35;;;;;;;29.33;13.87;;;-2.10;99.90;;;;;;4933175;28;20416;-63
2023/12/01 07:58:02;;;;;;;24.93;13.33;;;-2.10;99.90;;;;;;4925169;28;20209;-63
2023/12/01 08:00:29;;;;;;;25.53;13.47;;;-2.20;99.90;;;;;;4907451;28;20206;-63
2023/12/01 08:02:57;;;;;;;25.67;14.10;;;-1.90;99.90;;;;;;4914846;28;20443;-63
2023/12/01 08:05:26;;;;;;;25.80;13.07;;;-1.90;99.90;;;;;;4931263;28;20200;-63
2023/12/01 08:07:54;;;;;;;28.40;13.90;;;-1.90;99.90;;;;;;4925715;28;20413;-63
2023/12/01 08:10:21;;;;;;;23.67;12.93;;;-1.90;99.90;;;;;;4934761;28;20198;-63
2023/12/01 08:12:50;;;;;;;23.27;12.23;;;-1.90;99.90;;;;;;4929610;28;20430;-63
2023/12/01 08:15:17;;;;;;;25.03;12.47;;;-1.90;99.90;;;;;;4931079;28;20234;-62
2023/12/01 08:17:45;;;;;;;27.33;14.03;;;-1.30;99.90;;;;;;4892356;28;20238;-64
2023/12/01 08:20:12;;;;;;;28.70;14.60;;;-1.80;99.90;;;;;;4933254;28;20230;-63
2023/12/01 08:22:43;;;;;;;31.30;16.60;;;-1.80;99.90;;;;;;4927766;28;20412;-63
2023/12/01 08:25:10;;;;;;;28.30;15.33;;;-1.80;99.90;;;;;;4932557;28;20874;-63
2023/12/01 08:27:37;;;;;;;26.30;14.50;;;-1.70;99.90;;;;;;4931144;28;20229;-63
2023/12/01 08:30:05;;;;;;;33.50;17.97;;;-1.80;99.90;;;;;;4928825;28;20522;-63
2023/12/01 08:32:32;;;;;;;37.50;19.70;;;-1.80;99.90;;;;;;4903394;28;20234;-62
2023/12/01 08:34:59;;;;;;;33.07;15.90;;;-1.80;99.90;;;;;;4924067;28;20476;-63
2023/12/01 08:37:26;;;;;;;24.27;13.27;;;-1.80;99.90;;;;;;4940080;28;21066;-63
2023/12/01 08:39:54;;;;;;;26.33;13.30;;;-1.70;99.90;;;;;;4928394;28;20209;-62
2023/12/01 08:42:21;;;;;;;22.30;12.97;;;-2.00;99.90;;;;;;4932527;28;20225;-63
2023/12/01 08:44:48;;;;;;;22.77;12.70;;;-4.10;99.90;;;;;;4921402;28;20243;-63
2023/12/01 08:47:19;;;;;;;23.87;12.40;;;-1.50;99.90;;;;;;4925864;28;20460;-63
2023/12/01 08:49:49;;;;;;;28.97;13.53;;;-1.60;99.90;;;;;;4884149;28;20319;-63
2023/12/01 08:52:16;;;;;;;29.60;13.63;;;-1.60;99.90;;;;;;4933577;28;20819;-63
2023/12/01 08:54:43;;;;;;;28.37;13.40;;;-1.80;99.90;;;;;;4937027;28;20203;-63
2023/12/01 08:57:11;;;;;;;25.97;14.37;;;-1.10;99.90;;;;;;4936530;28;21009;-63
2023/12/01 08:59:38;;;;;;;29.20;16.13;;;-1.70;99.90;;;;;;4935242;28;20204;-63
2023/12/01 09:02:05;;;;;;;24.50;13.10;;;-2.80;99.90;;;;;;4922061;28;20232;-63
2023/12/01 09:04:32;;;;;;;31.03;14.73;;;-1.60;99.90;;;;;;4887821;28;21364;-63
2023/12/01 09:06:59;;;;;;;33.43;15.30;;;-2.00;99.90;;;;;;4939583;28;20216;-63
2023/12/01 09:09:26;;;;;;;24.73;14.20;;;-1.50;99.90;;;;;;4930450;28;20280;-63
2023/12/01 09:11:53;;;;;;;27.70;13.23;;;-2.20;99.90;;;;;;4935673;28;20561;-63
2023/12/01 09:14:21;;;;;;;24.93;13.43;;;-1.50;99.90;;;;;;4931599;28;20250;-63
2023/12/01 09:16:48;;;;;;;23.50;13.50;;;-1.50;99.90;;;;;;4921172;28;20226;-64
2023/12/01 09:19:15;;;;;;;37.93;17.53;;;-1.70;99.90;;;;;;4890635;28;20225;-63
2023/12/01 09:21:42;;;;;;;26.10;13.93;;;-1.50;99.90;;;;;;4925001;28;20220;-63
2023/12/01 09:24:09;;;;;;;28.70;14.23;;;-1.50;99.90;;;;;;4908139;28;20207;-63
2023/12/01 09:26:35;;;;;;;27.00;13.93;;;-0.10;99.90;;;;;;4927591;28;20742;-62
2023/12/01 09:29:02;;;;;;;28.20;14.37;;;-1.50;99.90;;;;;;4909395;28;20230;-63
2023/12/01 09:31:30;;;;;;;27.27;14.33;;;-1.50;99.90;;;;;;4910095;28;20238;-63
2023/12/01 09:33:57;;;;;;;26.97;13.90;;;-1.50;99.90;;;;;;4922972;28;20248;-63
2023/12/01 09:36:26;;;;;;;25.50;13.03;;;;;;;;;;4883984;28;20261;-63
2023/12/01 09:38:53;;;;;;;26.90;14.23;;;-1.80;99.90;;;;;;4929006;28;22288;-63
2023/12/01 09:41:20;;;;;;;27.60;13.47;;;-1.50;99.90;;;;;;4919964;28;20230;-62
2023/12/01 09:43:48;;;;;;;26.03;14.47;;;-1.20;99.90;;;;;;4932278;28;20230;-63
2023/12/01 09:46:15;;;;;;;28.10;13.17;;;-1.50;99.90;;;;;;4925414;28;20225;-63
2023/12/01 09:48:47;;;;;;;28.00;14.03;;;-1.50;99.90;;;;;;4916285;28;20207;-63
2023/12/01 09:51:14;;;;;;;27.27;13.10;;;-2.30;99.90;;;;;;4905186;28;20963;-63
2023/12/01 09:53:41;;;;;;;28.23;14.57;;;-1.50;99.90;;;;;;4934850;28;20226;-63
2023/12/01 09:56:10;;;;;;;26.17;14.73;;;-1.50;99.90;;;;;;4931055;28;20202;-63
2023/12/01 09:58:37;;;;;;;24.80;13.53;;;-1.40;99.90;;;;;;4939619;28;20216;-63
2023/12/01 10:01:04;;;;;;;40.27;13.37;;;-1.40;99.90;;;;;;4932101;28;20202;-63
2023/12/01 10:03:31;;;;;;;26.77;13.83;;;-1.50;99.90;;;;;;4906105;28;21044;-63
2023/12/01 10:06:00;;;;;;;26.17;13.80;;;-0.90;99.90;;;;;;4885865;28;20348;-63
2023/12/01 10:08:27;;;;;;;25.33;13.40;;;-0.50;99.90;;;;;;4913375;28;20233;-62
2023/12/01 10:10:54;;;;;;;28.60;14.70;;;0.70;99.90;;;;;;4929974;28;20234;-63
2023/12/01 10:13:21;;;;;;;27.43;14.20;;;-1.20;99.90;;;;;;4910064;28;20601;-63
2023/12/01 10:15:49;;;;;;;29.13;16.03;;;-1.00;99.90;;;;;;4927856;28;20206;-63
2023/12/01 10:18:18;;;;;;;27.77;13.30;;;-1.30;99.90;;;;;;4903604;28;20238;-63
2023/12/01 10:20:58;;;;;;;25.40;12.63;;;-1.00;99.90;;;;;;4896762;28;20898;-63
2023/12/01 10:23:28;;;;;;;22.50;10.63;;;-0.60;99.90;;;;;;4923681;28;21571;-63
2023/12/01 10:25:55;;;;;;;24.80;11.77;;;-0.90;99.90;;;;;;4919962;28;20250;-63
2023/12/01 10:28:23;;;;;;;21.33;11.13;;;-1.10;99.90;;;;;;4924412;28;20329;-62
2023/12/01 10:30:54;;;;;;;24.83;12.13;;;-1.10;99.90;;;;;;4924477;28;20200;-63
2023/12/01 10:33:21;;;;;;;22.90;13.00;;;-0.60;99.90;;;;;;4925647;28;21046;-63
2023/12/01 10:36:01;;;;;;;25.40;12.87;;;-0.60;99.90;;;;;;4909459;28;20235;-63
2023/12/01 10:38:30;;;;;;;36.17;17.57;;;-0.90;99.90;;;;;;4925246;28;20637;-63
2023/12/01 10:40:58;;;;;;;26.73;14.17;;;-0.90;99.90;;;;;;4919408;28;20227;-63
2023/12/01 10:43:26;;;;;;;23.37;12.93;;;-0.90;99.90;;;;;;4931080;28;20213;-63
2023/12/01 10:45:53;;;;;;;24.20;12.17;;;-0.90;99.90;;;;;;4939346;28;20232;-64
2023/12/01 10:48:22;;;;;;;28.03;13.03;;;-0.70;99.90;;;;;;4942067;28;20268;-63
2023/12/01 10:50:52;;;;;;;20.80;11.60;;;-0.80;99.90;;;;;;4905206;28;20225;-63
2023/12/01 10:53:19;;;;;;;20.20;11.20;;;-0.80;99.90;;;;;;4916065;28;20228;-63
2023/12/01 10:55:48;;;;;;;17.77;10.97;;;-0.80;99.90;;;;;;4912414;28;20237;-63
2023/12/01 10:58:21;;;;;;;24.57;12.00;;;-0.80;99.90;;;;;;4913443;28;20240;-63
2023/12/01 11:00:49;;;;;;;18.60;10.70;;;-0.60;99.90;;;;;;4903808;28;20937;-64
2023/12/01 11:03:19;;;;;;;22.83;12.37;;;-0.60;99.90;;;;;;4933357;28;20476;-63
2023/12/01 11:05:49;;;;;;;19.00;9.90;;;-0.70;99.90;;;;;;4924136;28;20218;-63
2023/12/01 11:08:40;;;;;;;19.70;10.27;;;0.60;99.90;;;;;;4895951;28;20322;-63
2023/12/01 11:11:17;;;;;;;20.67;11.83;;;0.30;99.90;;;;;;4925108;28;20841;-63
2023/12/01 11:13:59;;;;;;;21.60;11.40;;;0.40;99.90;;;;;;4914306;28;20243;-64
2023/12/01 11:16:27;;;;;;;19.97;11.03;;;1.40;99.90;;;;;;4913869;28;20232;-64
2023/12/01 11:18:56;;;;;;;22.23;11.10;;;0.60;99.90;;;;;;4913679;28;20230;-64
2023/12/01 11:21:23;;;;;;;21.43;11.73;;;0.40;99.90;;;;;;4928380;28;20214;-64
2023/12/01 11:23:50;;;;;;;22.43;12.10;;;0.10;99.90;;;;;;4895348;28;20212;-64
2023/12/01 11:26:19;;;;;;;22.40;11.40;;;-0.10;99.90;;;;;;4917226;28;20726;-63
2023/12/01 11:28:55;;;;;;;22.40;10.50;;;0.80;99.90;;;;;;4921272;28;20465;-64
2023/12/01 11:31:34;;;;;;;21.73;11.20;;;-1.40;99.90;;;;;;4915683;28;20280;-63
2023/12/01 11:34:02;;;;;;;17.60;10.23;;;-0.40;99.90;;;;;;4925434;28;20208;-63
2023/12/01 11:36:31;;;;;;;17.47;11.07;;;-0.40;99.90;;;;;;4926160;28;20225;-63
2023/12/01 11:39:17;;;;;;;23.87;11.57;;;-0.40;99.90;;;;;;4902311;28;20331;-63
2023/12/01 11:42:17;;;;;;;18.40;11.40;;;-0.40;99.90;;;;;;4935770;28;20277;-63
2023/12/01 11:44:44;;;;;;;19.87;11.40;;;-0.40;99.90;;;;;;4920103;28;20206;-63
2023/12/01 11:47:13;;;;;;;22.27;13.13;;;-0.40;99.90;;;;;;4910591;28;20207;-63
2023/12/01 11:49:43;;;;;;;22.63;11.97;;;-0.50;99.90;;;;;;4924725;28;20343;-63
2023/12/01 11:52:12;;;;;;;23.03;13.07;;;-0.50;99.90;;;;;;4945003;28;20224;-64
2023/12/01 11:54:40;;;;;;;19.67;11.03;;;-0.50;99.90;;;;;;4903654;28;20786;-64
2023/12/01 11:57:08;;;;;;;22.47;10.83;;;-0.30;99.90;;;;;;4924579;28;20318;-64
2023/12/01 11:59:37;;;;;;;20.87;10.40;;;-1.20;99.90;;;;;;4896661;28;20242;-64
2023/12/01 12:02:04;;;;;;;16.93;9.23;;;-0.40;99.90;;;;;;4912780;28;20494;-63
2023/12/01 12:04:32;;;;;;;19.53;9.97;;;-0.30;99.90;;;;;;4911483;28;20204;-64
2023/12/01 12:07:00;;;;;;;16.87;9.77;;;-0.40;99.90;;;;;;4926387;28;20207;-63
2023/12/01 12:09:31;;;;;;;17.07;9.43;;;-0.30;99.90;;;;;;4895834;28;20255;-63
2023/12/01 12:11:59;;;;;;;20.33;10.87;;;-0.40;99.90;;;;;;4935852;28;20486;-63
2023/12/01 12:14:28;;;;;;;17.87;9.73;;;0.40;99.90;;;;;;4936373;28;20240;-63
2023/12/01 12:16:56;;;;;;;17.60;9.87;;;-0.30;99.90;;;;;;4910005;28;20241;-63
2023/12/01 12:19:23;;;;;;;17.87;9.73;;;-0.30;99.90;;;;;;4932823;28;20746;-63
2023/12/01 12:21:50;;;;;;;19.33;11.27;;;-0.30;99.90;;;;;;4911056;28;20484;-64
2023/12/01 12:24:18;;;;;;;24.93;14.30;;;-0.40;99.90;;;;;;4890797;28;20513;-64
2023/12/01 12:26:44;;;;;;;23.27;14.20;;;-0.30;99.90;;;;;;4928595;28;21293;-63
2023/12/01 12:29:12;;;;;;;17.20;10.13;;;-0.80;99.90;;;;;;4927530;28;20212;-63
2023/12/01 12:31:41;;;;;;;20.03;9.83;;;-0.40;99.90;;;;;;4911369;28;20239;-63
2023/12/01 12:34:10;;;;;;;16.03;9.47;;;-0.40;99.90;;;;;;4930757;28;20216;-63
2023/12/01 12:36:39;;;;;;;17.57;9.93;;;-0.10;99.90;;;;;;4926037;28;20230;-64
2023/12/01 12:39:08;;;;;;;17.73;9.77;;;-0.50;99.90;;;;;;4899752;28;20230;-63